»·PEaware :: N915MM KOXR-KBJC

N915MM :: KOXR-KBJC

FLIGHT INFORMATION

Flight Status: Arrived
Operator: Privately registered:
United States
More flights under this callsign
Pilot: Tyler S. (27221)
Aircraft: SOCATA TBM-900
(TBM9)
More flights by this aircraft type
Origin: KOXR Oxnard
United States
Destination: KBJC Jeffco
United States
More flights between these airports :: More routes between these airports
Route: FIM PMD J6 HEC J60 DBL POWDR1
File this flight plan on PilotEdge
Remarks:
Altitude:
(Current/Filed)
29,000ft
Speed:
(Current/Filed)
310kts
Departed: 31-Mar-20 10:43 AM
Arrived: 31-Mar-20 01:21 PM
Distance/Time
Traveled:
756nm/2:38
Distance/Time
To Go:
Arrived

Flight Plot

Page will automatically refresh every two minutes.

Flight plan parsing failed; only flown route is shown


Map Options




Map Legend


Flown Route
Filed Route
Departure Airport
Arrival Airport
Navaid (VOR, NDB)
Fix

Horizontal Profiles

Position Reports

Time Latitude Longitude Heading Altitude Ground
Speed
31-Mar-20 10:06 34.198999 -119.197754 269 44ft 0kts
31-Mar-20 10:07 34.198999 -119.197754 269 44ft 0kts
31-Mar-20 10:08 34.198999 -119.197754 269 44ft 0kts
31-Mar-20 10:09 34.198999 -119.197754 269 44ft 0kts
31-Mar-20 10:10 34.198999 -119.197754 269 44ft 0kts
31-Mar-20 10:11 34.198999 -119.197754 269 44ft 0kts
31-Mar-20 10:12 34.198999 -119.197754 269 44ft 0kts
31-Mar-20 10:13 34.198999 -119.197754 269 44ft 0kts
31-Mar-20 10:14 34.198999 -119.197754 269 44ft 0kts
31-Mar-20 10:14 34.198999 -119.197754 269 44ft 0kts
31-Mar-20 10:16 34.198999 -119.197754 269 44ft 0kts
31-Mar-20 10:17 34.198999 -119.197754 269 44ft 0kts
31-Mar-20 10:17 34.198999 -119.197754 269 44ft 0kts
31-Mar-20 10:19 34.198999 -119.197754 269 44ft 0kts
31-Mar-20 10:20 34.198999 -119.197754 269 44ft 0kts
31-Mar-20 10:21 34.198999 -119.197754 269 44ft 0kts
31-Mar-20 10:21 34.198999 -119.197754 269 44ft 0kts
31-Mar-20 10:22 34.198999 -119.197754 269 44ft 0kts
31-Mar-20 10:24 34.198999 -119.197754 269 44ft 0kts
31-Mar-20 10:24 34.198999 -119.197754 269 44ft 0kts
31-Mar-20 10:25 34.198999 -119.197754 269 44ft 0kts
31-Mar-20 10:26 34.198999 -119.197754 269 44ft 0kts
31-Mar-20 10:27 34.198999 -119.197754 269 44ft 0kts
31-Mar-20 10:28 34.198999 -119.197754 269 44ft 0kts
31-Mar-20 10:29 34.198999 -119.197754 269 44ft 0kts
31-Mar-20 10:30 34.199356 -119.197812 2 44ft 0kts
31-Mar-20 10:31 34.199972 -119.197559 0 44ft 1kts
31-Mar-20 10:32 34.200729 -119.197677 270 44ft 0kts
31-Mar-20 10:33 34.200769 -119.202193 271 44ft 15kts
31-Mar-20 10:34 34.199740 -119.201104 91 44ft 13kts
31-Mar-20 10:35 34.199022 -119.199249 90 44ft 0kts
31-Mar-20 10:36 34.199022 -119.199249 90 44ft 0kts
31-Mar-20 10:37 34.199022 -119.199249 90 44ft 0kts
31-Mar-20 10:38 34.199022 -119.199249 90 44ft 0kts
31-Mar-20 10:39 34.199166 -119.199014 37 44ft 6kts
31-Mar-20 10:40 34.199969 -119.197537 0 44ft 0kts
31-Mar-20 10:41 34.200057 -119.197535 1 44ft 4kts
31-Mar-20 10:42 34.200870 -119.213221 272 180ft 128kts
31-Mar-20 10:43 34.198133 -119.260242 267 2342ft 144kts
31-Mar-20 10:44 34.194878 -119.310280 267 4041ft 175kts
31-Mar-20 10:45 34.191057 -119.368209 267 3996ft 168kts
31-Mar-20 10:46 34.186287 -119.423840 262 4599ft 164kts
31-Mar-20 10:47 34.178017 -119.474412 262 7168ft 154kts
31-Mar-20 10:48 34.168931 -119.532114 262 8016ft 198kts
31-Mar-20 10:49 34.158816 -119.599506 262 8002ft 206kts
31-Mar-20 10:50 34.187447 -119.610301 76 10032ft 180kts
31-Mar-20 10:51 34.200649 -119.551075 68 12165ft 188kts
31-Mar-20 10:52 34.218317 -119.489977 67 14211ft 197kts
31-Mar-20 10:53 34.237250 -119.425970 68 16084ft 208kts
31-Mar-20 10:54 34.257046 -119.358982 69 18081ft 217kts
31-Mar-20 10:55 34.277608 -119.289375 69 20105ft 224kts
31-Mar-20 10:56 34.298916 -119.217039 69 22049ft 232kts
31-Mar-20 10:57 34.320892 -119.142221 69 23912ft 241kts
31-Mar-20 10:58 34.343721 -119.064321 70 25578ft 252kts
31-Mar-20 10:59 34.367644 -118.982451 71 27210ft 263kts
31-Mar-20 11:00 34.392525 -118.897019 71 28619ft 275kts
31-Mar-20 11:01 34.419183 -118.805206 70 29131ft 308kts
31-Mar-20 11:02 34.448684 -118.703372 70 29119ft 329kts
31-Mar-20 11:03 34.479429 -118.596775 70 29115ft 338kts
31-Mar-20 11:04 34.510416 -118.488934 70 29114ft 341kts
31-Mar-20 11:05 34.541615 -118.379919 70 29114ft 342kts
31-Mar-20 11:06 34.572479 -118.271668 71 29107ft 342kts
31-Mar-20 11:07 34.603425 -118.162704 71 29108ft 341kts
31-Mar-20 11:08 34.632356 -118.052779 82 29100ft 340kts
31-Mar-20 11:09 34.645064 -117.939253 84 29163ft 339kts
31-Mar-20 11:10 34.657438 -117.825421 84 29210ft 339kts
31-Mar-20 11:11 34.669722 -117.711357 83 29221ft 343kts
31-Mar-20 11:12 34.682108 -117.595322 84 29220ft 348kts
31-Mar-20 11:13 34.694458 -117.478440 84 29224ft 349kts
31-Mar-20 11:14 34.706802 -117.360895 83 29213ft 350kts
31-Mar-20 11:15 34.718938 -117.243807 84 29203ft 349kts
31-Mar-20 11:16 34.730958 -117.126830 84 29208ft 348kts
31-Mar-20 11:17 34.742846 -117.010048 84 29222ft 347kts
31-Mar-20 11:18 34.754581 -116.893631 84 29234ft 347kts
31-Mar-20 11:19 34.766221 -116.777151 84 29235ft 347kts
31-Mar-20 11:20 34.777768 -116.660297 85 29230ft 347kts
31-Mar-20 11:21 34.789210 -116.543322 85 29223ft 348kts
31-Mar-20 11:22 34.816975 -116.431254 49 29217ft 351kts
31-Mar-20 11:23 34.885207 -116.347646 44 29198ft 351kts
31-Mar-20 11:24 34.951868 -116.260527 44 29191ft 348kts
31-Mar-20 11:25 35.017802 -116.173970 44 29186ft 348kts
31-Mar-20 11:26 35.083394 -116.087654 44 29189ft 347kts
31-Mar-20 11:27 35.148868 -116.001276 44 29184ft 346kts
31-Mar-20 11:28 35.214127 -115.914963 44 29182ft 346kts
31-Mar-20 11:29 35.279580 -115.828168 43 29183ft 346kts
31-Mar-20 11:30 35.344732 -115.741557 43 29184ft 346kts
31-Mar-20 11:31 35.409981 -115.654589 43 29194ft 346kts
31-Mar-20 11:32 35.475016 -115.567685 43 29210ft 346kts
31-Mar-20 11:33 35.540271 -115.480261 43 29224ft 346kts
31-Mar-20 11:34 35.605303 -115.392909 43 29225ft 346kts
31-Mar-20 11:35 35.670211 -115.305501 44 29217ft 346kts
31-Mar-20 11:36 35.735132 -115.217838 44 29226ft 346kts
31-Mar-20 11:37 35.799980 -115.130068 44 29210ft 347kts
31-Mar-20 11:38 35.864996 -115.041795 44 29202ft 347kts
31-Mar-20 11:39 35.930048 -114.953274 44 29197ft 348kts
31-Mar-20 11:40 35.995033 -114.864569 44 29216ft 347kts
31-Mar-20 11:41 36.057690 -114.773360 45 29203ft 348kts
31-Mar-20 11:42 36.120095 -114.682181 45 29202ft 347kts
31-Mar-20 11:43 36.182415 -114.590874 45 29203ft 347kts
31-Mar-20 11:44 36.244658 -114.499435 45 29205ft 347kts
31-Mar-20 11:45 36.307001 -114.407599 45 29206ft 347kts
31-Mar-20 11:46 36.369007 -114.316014 46 29197ft 347kts
31-Mar-20 11:47 36.431009 -114.224174 46 29199ft 346kts
31-Mar-20 11:48 36.492696 -114.132558 46 29218ft 346kts
31-Mar-20 11:49 36.554313 -114.040796 46 29237ft 346kts
31-Mar-20 11:50 36.615945 -113.948750 46 29248ft 346kts
31-Mar-20 11:51 36.677894 -113.856014 46 29248ft 348kts
31-Mar-20 11:52 36.739774 -113.763057 46 29256ft 349kts
31-Mar-20 11:53 36.801960 -113.669438 46 29249ft 350kts
31-Mar-20 11:54 36.864013 -113.575737 46 29251ft 349kts
31-Mar-20 11:55 36.925859 -113.482070 46 29253ft 350kts
31-Mar-20 11:56 36.987749 -113.388111 46 29252ft 351kts
31-Mar-20 11:57 37.049697 -113.293771 46 29239ft 352kts
31-Mar-20 11:58 37.111718 -113.199050 46 29241ft 352kts
31-Mar-20 11:59 37.173624 -113.104229 46 29231ft 352kts
31-Mar-20 12:00 37.235605 -113.009040 46 29200ft 352kts
31-Mar-20 12:01 37.297414 -112.913831 46 29217ft 350kts
31-Mar-20 12:02 37.359012 -112.818657 46 29241ft 350kts
31-Mar-20 12:03 37.420203 -112.723838 46 29248ft 350kts
31-Mar-20 12:04 37.481612 -112.628464 46 29250ft 350kts
31-Mar-20 12:05 37.542873 -112.533001 46 29251ft 351kts
31-Mar-20 12:06 37.604198 -112.437178 45 29261ft 353kts
31-Mar-20 12:07 37.666136 -112.340102 46 29238ft 356kts
31-Mar-20 12:08 37.720952 -112.235485 56 29243ft 359kts
31-Mar-20 12:10 37.771404 -112.126588 56 29234ft 359kts
31-Mar-20 12:11 37.821738 -112.017560 56 29238ft 359kts
31-Mar-20 12:12 37.872048 -111.908190 56 29221ft 359kts
31-Mar-20 12:13 37.922219 -111.798775 56 29214ft 358kts
31-Mar-20 12:14 37.972168 -111.689472 56 29215ft 358kts
31-Mar-20 12:15 38.022460 -111.579037 56 29216ft 359kts
31-Mar-20 12:16 38.072462 -111.468867 56 29218ft 359kts
31-Mar-20 12:17 38.122318 -111.358657 55 29216ft 360kts
31-Mar-20 12:18 38.171887 -111.248690 56 29207ft 359kts
31-Mar-20 12:19 38.222048 -111.137023 56 29208ft 359kts
31-Mar-20 12:20 38.271719 -111.026080 56 29198ft 360kts
31-Mar-20 12:21 38.321422 -110.914671 56 29164ft 362kts
31-Mar-20 12:22 38.371100 -110.802893 56 29148ft 361kts
31-Mar-20 12:23 38.419185 -110.690578 65 29127ft 364kts
31-Mar-20 12:24 38.454391 -110.569367 67 29142ft 363kts
31-Mar-20 12:25 38.489231 -110.447902 66 29143ft 364kts
31-Mar-20 12:25 38.517892 -110.347632 67 29144ft 364kts
31-Mar-20 12:27 38.558440 -110.205067 67 29107ft 363kts
31-Mar-20 12:28 38.592714 -110.083937 67 29106ft 362kts
31-Mar-20 12:28 38.621248 -109.982643 67 29104ft 362kts
31-Mar-20 12:30 38.660965 -109.841130 67 29102ft 362kts
31-Mar-20 12:31 38.694868 -109.719665 67 29104ft 362kts
31-Mar-20 12:31 38.723104 -109.618065 67 29104ft 363kts
31-Mar-20 12:32 38.756811 -109.496220 67 29107ft 363kts
31-Mar-20 12:34 38.796060 -109.353676 66 29108ft 363kts
31-Mar-20 12:34 38.824016 -109.251679 67 29097ft 363kts
31-Mar-20 12:35 38.857247 -109.129848 67 29111ft 362kts
31-Mar-20 12:36 38.890428 -109.007675 67 29133ft 361kts
31-Mar-20 12:37 38.923421 -108.885574 67 29143ft 362kts
31-Mar-20 12:38 38.956341 -108.763132 67 29141ft 363kts
31-Mar-20 12:39 38.989189 -108.640449 67 29138ft 363kts
31-Mar-20 12:40 39.021941 -108.517483 67 29136ft 364kts
31-Mar-20 12:41 39.054611 -108.394216 66 29135ft 364kts
31-Mar-20 12:42 39.086713 -108.272529 67 29124ft 363kts
31-Mar-20 12:43 39.119067 -108.149259 67 29151ft 362kts
31-Mar-20 12:44 39.151219 -108.026171 67 29195ft 362kts
31-Mar-20 12:45 39.183190 -107.903136 67 29211ft 362kts
31-Mar-20 12:46 39.215100 -107.779762 67 29213ft 362kts
31-Mar-20 12:47 39.246860 -107.656339 67 29214ft 362kts
31-Mar-20 12:48 39.278375 -107.533240 67 28846ft 359kts
31-Mar-20 12:49 39.309387 -107.411522 66 27881ft 353kts
31-Mar-20 12:50 39.339733 -107.291840 67 26882ft 343kts
31-Mar-20 12:51 39.368827 -107.176434 67 25942ft 334kts
31-Mar-20 12:52 39.397421 -107.062458 66 24959ft 332kts
31-Mar-20 12:53 39.426236 -106.946999 67 24186ft 319kts
31-Mar-20 12:54 39.427459 -106.837107 106 24175ft 310kts
31-Mar-20 12:55 39.404770 -106.728978 105 24192ft 311kts
31-Mar-20 12:56 39.381268 -106.616828 105 24178ft 325kts
31-Mar-20 12:57 39.357066 -106.502131 105 24180ft 329kts
31-Mar-20 12:58 39.332723 -106.387277 105 24179ft 330kts
31-Mar-20 12:59 39.308183 -106.272191 106 24170ft 330kts
31-Mar-20 13:00 39.283427 -106.156684 106 24179ft 340kts
31-Mar-20 13:01 39.257400 -106.035822 106 24159ft 350kts
31-Mar-20 13:02 39.230779 -105.913084 105 24090ft 354kts
31-Mar-20 13:03 39.215193 -105.789399 62 23763ft 339kts
31-Mar-20 13:04 39.267856 -105.696412 43 22392ft 308kts
31-Mar-20 13:05 39.320332 -105.607943 44 21029ft 302kts
31-Mar-20 13:06 39.371204 -105.522089 43 19703ft 298kts
31-Mar-20 13:07 39.421418 -105.437232 44 19048ft 299kts
31-Mar-20 13:08 39.472941 -105.349705 45 19044ft 307kts
31-Mar-20 13:09 39.525848 -105.259600 45 18918ft 306kts
31-Mar-20 13:10 39.576071 -105.173921 45 17328ft 283kts
31-Mar-20 13:11 39.623854 -105.092569 41 15784ft 272kts
31-Mar-20 13:12 39.690578 -105.062682 7 13913ft 241kts
31-Mar-20 13:13 39.754351 -105.041622 8 11965ft 230kts
31-Mar-20 13:14 39.815841 -105.023520 8 10045ft 218kts
31-Mar-20 13:15 39.872293 -105.021022 353 8330ft 196kts
31-Mar-20 13:16 39.913564 -105.059266 308 6653ft 176kts
31-Mar-20 13:17 39.936136 -105.100057 302 6449ft 116kts
31-Mar-20 13:18 39.940099 -105.134698 211 6505ft 102kts
31-Mar-20 13:19 39.918101 -105.134065 116 5843ft 94kts
31-Mar-20 13:20 39.910330 -105.117302 94 5672ft 13kts
31-Mar-20 13:21 39.911293 -105.114353 34 5672ft 11kts
31-Mar-20 13:22 39.911716 -105.114570 34 5672ft 0kts
31-Mar-20 13:23 39.911716 -105.114570 34 5672ft 0kts
31-Mar-20 13:24 39.911715 -105.114571 34 5672ft 0kts
31-Mar-20 13:25 39.911715 -105.114571 34 5672ft 0kts
31-Mar-20 13:26 39.911715 -105.114571 34 5672ft 0kts
31-Mar-20 13:27 39.911715 -105.114571 34 5672ft 0kts
31-Mar-20 13:28 39.911715 -105.114571 34 5672ft 0kts
31-Mar-20 13:29 39.911715 -105.114571 34 5672ft 0kts
31-Mar-20 13:30 39.911715 -105.114571 34 5672ft 0kts
31-Mar-20 13:31 39.911715 -105.114571 34 5672ft 0kts
31-Mar-20 13:32 39.911715 -105.114571 34 5672ft 0kts
31-Mar-20 13:33 39.911715 -105.114571 34 5672ft 0kts
31-Mar-20 13:34 39.911716 -105.114570 34 5672ft 0kts

Navigation Log

Ident Type
Flight plan parsing failed, navigation log unavailable